createdAt,value
2023-12-18T00:00:30.828Z,6.08
2023-12-18T00:10:24.019Z,6.06
2023-12-18T00:12:56.312Z,6.07
2023-12-18T00:15:30.778Z,6.05
2023-12-18T00:22:00.777Z,6.04
2023-12-18T00:24:27.546Z,6.06
2023-12-18T00:26:58.249Z,6.04
2023-12-18T00:29:50.676Z,6.06
2023-12-18T00:32:36.117Z,6.06
2023-12-18T00:35:33.682Z,6.08
2023-12-18T00:40:28.294Z,6.07
2023-12-18T00:41:22.885Z,6.07
2023-12-18T00:44:12.503Z,6.10
2023-12-18T00:50:56.593Z,6.11
2023-12-18T00:53:25.603Z,6.12
2023-12-18T00:55:53.672Z,6.13
2023-12-18T00:58:24.391Z,6.13
2023-12-18T01:00:54.647Z,6.13
2023-12-18T01:04:00.966Z,6.14
2023-12-18T01:07:26.964Z,6.14
2023-12-18T01:09:59.885Z,6.13
2023-12-18T01:12:32.713Z,6.15
2023-12-18T01:15:07.766Z,6.15
2023-12-18T01:17:44.149Z,6.15
2023-12-18T01:20:18.089Z,6.17
2023-12-18T01:23:34.512Z,6.19
2023-12-18T01:26:05.683Z,6.18
2023-12-18T01:28:36.157Z,6.17
2023-12-18T01:31:03.271Z,6.18
2023-12-18T01:34:02.977Z,6.20
2023-12-18T01:37:01.331Z,6.20
2023-12-18T01:46:28.983Z,6.21
2023-12-18T01:51:54.632Z,6.21
2023-12-18T01:54:28.697Z,6.22
2023-12-18T02:00:53.698Z,6.22
2023-12-18T02:03:35.012Z,6.24
2023-12-18T02:06:31.270Z,6.26
2023-12-18T02:09:03.737Z,6.26
2023-12-18T02:11:33.328Z,6.26
2023-12-18T02:14:03.408Z,6.27
2023-12-18T02:17:24.784Z,6.27
2023-12-18T02:24:47.038Z,6.29
2023-12-18T02:28:04.781Z,6.30
2023-12-18T02:31:22.034Z,6.30
2023-12-18T02:34:38.734Z,6.30
2023-12-18T02:37:10.422Z,6.32
2023-12-18T02:39:37.614Z,6.32
2023-12-18T02:42:07.780Z,6.33
2023-12-18T02:45:49.559Z,6.36
2023-12-18T02:49:07.012Z,6.36
2023-12-18T02:53:02.797Z,6.36
2023-12-18T02:56:39.539Z,6.37
2023-12-18T02:59:07.152Z,6.37
2023-12-18T03:02:01.302Z,6.39
2023-12-18T03:04:31.858Z,6.39
2023-12-18T03:07:04.499Z,6.41
2023-12-18T03:09:31.676Z,6.42
2023-12-18T03:12:04.553Z,6.42
2023-12-18T03:14:31.681Z,6.42
2023-12-18T03:24:22.984Z,6.44
2023-12-18T03:27:08.268Z,6.46
2023-12-18T03:33:20.479Z,6.47
2023-12-18T03:36:31.274Z,6.47
2023-12-18T03:39:40.335Z,6.47
2023-12-18T03:50:06.672Z,6.53
2023-12-18T03:57:31.701Z,6.54
2023-12-18T04:04:17.821Z,6.57
2023-12-18T04:13:21.325Z,6.62
2023-12-18T04:28:23.829Z,6.66
2023-12-18T04:31:20.219Z,6.67
2023-12-18T04:34:03.996Z,6.68
2023-12-18T04:47:33.670Z,6.50
2023-12-18T04:50:01.909Z,6.47
2023-12-18T04:56:29.164Z,6.41
2023-12-18T05:07:31.906Z,6.33
2023-12-18T05:10:03.248Z,6.30
2023-12-18T05:12:31.732Z,6.27
2023-12-18T05:15:03.726Z,6.29
2023-12-18T05:22:03.456Z,6.24
2023-12-18T05:25:00.288Z,6.27
2023-12-18T05:27:33.078Z,6.24
2023-12-18T05:30:06.993Z,6.22
2023-12-18T05:32:38.596Z,6.22
2023-12-18T05:35:07.863Z,6.21
2023-12-18T05:37:37.067Z,6.19
2023-12-18T05:41:19.148Z,6.17
2023-12-18T05:43:38.494Z,6.18
2023-12-18T05:52:20.816Z,6.17
2023-12-18T05:54:53.131Z,6.18
2023-12-18T05:57:20.516Z,6.17
2023-12-18T06:01:33.057Z,6.19
2023-12-18T06:05:09.790Z,6.22
2023-12-18T06:22:34.573Z,6.18
2023-12-18T06:32:09.350Z,6.22
2023-12-18T06:35:54.693Z,6.23
2023-12-18T06:43:02.816Z,6.26
2023-12-18T06:45:34.889Z,6.27
2023-12-18T06:48:07.963Z,6.25
2023-12-18T06:51:04.026Z,6.26
2023-12-18T06:58:20.599Z,6.28
2023-12-18T07:01:16.192Z,6.30
2023-12-18T07:07:03.689Z,6.29
2023-12-18T07:09:36.071Z,6.29
2023-12-18T07:12:41.522Z,6.29
2023-12-18T07:18:28.527Z,6.29
2023-12-18T07:21:29.689Z,6.28
2023-12-18T07:25:02.850Z,6.30
2023-12-18T07:30:46.093Z,6.30
2023-12-18T07:34:12.002Z,6.32
2023-12-18T07:37:03.892Z,6.33
2023-12-18T07:40:59.458Z,6.32
2023-12-18T07:49:24.740Z,6.33
2023-12-18T07:52:43.645Z,6.34
2023-12-18T07:55:31.312Z,6.33
2023-12-18T07:58:00.640Z,6.35
2023-12-18T08:00:55.012Z,6.36
2023-12-18T08:03:33.730Z,6.35
2023-12-18T08:11:03.838Z,6.39
2023-12-18T08:13:49.768Z,6.39
2023-12-18T08:16:55.966Z,6.43
2023-12-18T08:19:27.268Z,6.42
2023-12-18T08:22:37.960Z,6.46
2023-12-18T08:25:07.791Z,6.45
2023-12-18T08:27:35.685Z,6.47
2023-12-18T08:30:27.153Z,6.49
2023-12-18T08:33:19.910Z,6.49
2023-12-18T08:35:59.889Z,6.51
2023-12-18T08:38:29.182Z,6.50
2023-12-18T08:41:02.022Z,6.50
2023-12-18T08:47:04.606Z,6.56
2023-12-18T08:49:31.321Z,6.56
2023-12-18T08:52:01.191Z,6.58
2023-12-18T08:54:27.801Z,6.59
2023-12-18T08:56:54.429Z,6.59
2023-12-18T08:59:25.504Z,6.60
2023-12-18T09:01:58.534Z,6.61
2023-12-18T09:04:25.332Z,6.63
2023-12-18T09:06:51.977Z,6.65
2023-12-18T09:09:21.710Z,6.67
2023-12-18T09:11:48.341Z,6.70
2023-12-18T09:14:15.044Z,6.72
2023-12-18T09:16:46.830Z,6.76
2023-12-18T09:19:13.799Z,6.79
2023-12-18T09:21:40.496Z,6.79
2023-12-18T09:27:15.972Z,6.83
2023-12-18T09:30:09.033Z,6.85
2023-12-18T09:32:36.337Z,6.86
2023-12-18T09:35:37.697Z,6.87
2023-12-18T09:38:05.519Z,6.88
2023-12-18T09:40:57.804Z,6.89
2023-12-18T09:43:30.688Z,6.87
2023-12-18T09:46:24.624Z,6.90
2023-12-18T09:49:00.751Z,6.92
2023-12-18T09:51:29.674Z,6.94
2023-12-18T09:54:16.010Z,6.94
2023-12-18T09:56:44.613Z,6.96
2023-12-18T10:02:13.367Z,6.99
2023-12-18T10:04:43.569Z,7.03
2023-12-18T10:07:10.208Z,7.04
2023-12-18T10:09:37.139Z,7.08
2023-12-18T10:12:06.648Z,7.12
2023-12-18T10:14:34.979Z,7.16
2023-12-18T10:17:02.294Z,7.19
2023-12-18T10:19:29.395Z,7.26
2023-12-18T10:22:02.306Z,7.31
2023-12-18T10:24:54.502Z,7.38
2023-12-18T10:27:34.152Z,7.42
2023-12-18T10:30:29.202Z,7.52
2023-12-18T10:32:56.806Z,7.54
2023-12-18T10:35:24.047Z,7.53
2023-12-18T10:38:11.381Z,7.54
2023-12-18T10:40:38.790Z,7.53
2023-12-18T10:43:38.751Z,7.53
2023-12-18T10:46:05.710Z,7.52
2023-12-18T10:48:32.637Z,7.52
2023-12-18T10:51:06.949Z,7.52
2023-12-18T10:53:36.519Z,7.52
2023-12-18T10:56:07.103Z,7.52
2023-12-18T10:58:35.925Z,7.51
2023-12-18T11:01:08.628Z,7.54
2023-12-18T11:03:37.862Z,7.59
2023-12-18T11:06:10.128Z,7.62
2023-12-18T11:08:37.608Z,7.63
2023-12-18T11:11:10.229Z,7.64
2023-12-18T11:14:06.133Z,7.66
2023-12-18T11:20:37.233Z,7.70
2023-12-18T11:23:04.851Z,7.77
2023-12-18T11:25:41.504Z,7.83
2023-12-18T11:28:08.652Z,7.89
2023-12-18T11:30:44.703Z,7.92
2023-12-18T11:33:17.488Z,7.94
2023-12-18T11:35:48.770Z,7.95
2023-12-18T11:41:44.077Z,7.98
2023-12-18T11:44:15.085Z,7.98
2023-12-18T11:47:06.668Z,7.97
2023-12-18T11:49:43.561Z,8.01
2023-12-18T11:52:20.804Z,8.02
2023-12-18T11:54:50.024Z,8.02
2023-12-18T11:57:41.573Z,8.05
2023-12-18T12:00:08.719Z,8.06
2023-12-18T12:02:35.543Z,8.07
2023-12-18T12:05:05.558Z,8.09
2023-12-18T12:08:02.641Z,8.10
2023-12-18T12:10:41.113Z,8.12
2023-12-18T12:13:18.722Z,8.13
2023-12-18T12:15:57.900Z,8.16
2023-12-18T12:18:31.565Z,8.18
2023-12-18T12:20:58.683Z,8.21
2023-12-18T12:23:29.194Z,8.21
2023-12-18T12:26:04.657Z,8.20
2023-12-18T12:28:56.398Z,8.22
2023-12-18T12:31:23.243Z,8.23
2023-12-18T12:34:13.216Z,8.23
2023-12-18T12:36:59.388Z,8.25
2023-12-18T12:40:03.819Z,8.27
2023-12-18T12:42:48.739Z,8.28
2023-12-18T12:45:45.280Z,8.28
2023-12-18T12:48:39.656Z,8.27
2023-12-18T12:51:12.573Z,8.27
2023-12-18T12:53:40.294Z,8.28
2023-12-18T12:56:13.003Z,8.27
2023-12-18T13:10:44.911Z,8.29
2023-12-18T13:13:40.464Z,8.28
2023-12-18T13:16:10.978Z,8.25
2023-12-18T13:22:52.533Z,8.22
2023-12-18T13:33:14.804Z,8.20
2023-12-18T13:35:41.745Z,8.19
2023-12-18T13:38:13.457Z,8.19
2023-12-18T13:41:01.734Z,8.16
2023-12-18T13:43:53.663Z,8.16
2023-12-18T13:50:31.658Z,8.13
2023-12-18T13:57:46.425Z,8.13
2023-12-18T14:00:15.907Z,8.09
2023-12-18T14:03:22.666Z,8.08
2023-12-18T14:05:49.684Z,8.07
2023-12-18T14:08:16.899Z,8.06
2023-12-18T14:10:43.780Z,8.04
2023-12-18T14:13:16.510Z,8.03
2023-12-18T14:19:46.699Z,8.04
2023-12-18T14:22:16.111Z,8.01
2023-12-18T14:24:42.763Z,8.02
2023-12-18T14:27:15.236Z,8.02
2023-12-18T14:29:43.908Z,8.00
2023-12-18T14:33:09.806Z,7.99
2023-12-18T14:36:49.183Z,7.95
2023-12-18T14:39:18.396Z,7.91
2023-12-18T14:41:47.675Z,7.90
2023-12-18T14:44:14.436Z,7.89
2023-12-18T14:46:44.135Z,7.88
2023-12-18T14:49:12.580Z,7.85
2023-12-18T14:51:39.358Z,7.83
2023-12-18T14:54:24.847Z,7.84
2023-12-18T14:57:00.850Z,7.83
2023-12-18T15:03:19.829Z,7.77
2023-12-18T15:05:49.493Z,7.73
2023-12-18T15:09:10.317Z,7.73
2023-12-18T15:12:02.894Z,7.70
2023-12-18T15:14:55.575Z,7.71
2023-12-18T15:17:28.880Z,7.68
2023-12-18T15:19:55.598Z,7.68
2023-12-18T15:22:23.822Z,7.67
2023-12-18T15:24:51.877Z,7.65
2023-12-18T15:27:18.667Z,7.61
2023-12-18T15:29:45.435Z,7.61
2023-12-18T15:32:12.854Z,7.63
2023-12-18T15:34:39.518Z,7.62
2023-12-18T15:37:06.920Z,7.61
2023-12-18T15:39:59.512Z,7.62
2023-12-18T15:42:26.421Z,7.59
2023-12-18T15:44:52.989Z,7.57
2023-12-18T15:54:56.885Z,7.54
2023-12-18T15:57:42.100Z,7.52
2023-12-18T16:00:12.606Z,7.52
2023-12-18T16:02:43.882Z,7.50
2023-12-18T16:05:17.126Z,7.50
2023-12-18T16:07:45.524Z,7.51
2023-12-18T16:10:21.080Z,7.49
2023-12-18T16:16:30.244Z,7.48
2023-12-18T16:18:57.947Z,7.46
2023-12-18T16:25:49.964Z,7.44
2023-12-18T16:28:34.183Z,7.43
2023-12-18T16:31:26.749Z,7.41
2023-12-18T16:33:53.659Z,7.39
2023-12-18T16:36:23.090Z,7.38
2023-12-18T16:38:49.669Z,7.37
2023-12-18T16:41:17.802Z,7.36
2023-12-18T16:43:53.088Z,7.36
2023-12-18T16:46:19.638Z,7.34
2023-12-18T16:48:46.348Z,7.33
2023-12-18T16:51:13.358Z,7.34
2023-12-18T16:53:40.284Z,7.33
2023-12-18T16:56:07.091Z,7.32
2023-12-18T16:58:35.812Z,7.32
2023-12-18T17:01:04.693Z,7.31
2023-12-18T17:03:38.706Z,7.31
2023-12-18T17:10:27.853Z,7.27
2023-12-18T17:12:54.742Z,7.27
2023-12-18T17:15:35.347Z,7.24
2023-12-18T17:18:51.597Z,7.22
2023-12-18T17:21:18.746Z,7.20
2023-12-18T17:23:45.817Z,7.19
2023-12-18T17:26:12.647Z,7.16
2023-12-18T17:28:39.145Z,7.14
2023-12-18T17:31:08.236Z,7.13
2023-12-18T17:33:45.180Z,7.10
2023-12-18T17:36:38.600Z,7.10
2023-12-18T17:39:15.046Z,7.07
2023-12-18T17:42:12.720Z,7.07
2023-12-18T17:44:39.293Z,7.05
2023-12-18T17:47:05.891Z,7.06
2023-12-18T17:49:33.741Z,7.07
2023-12-18T17:52:03.041Z,7.07
2023-12-18T17:54:29.593Z,7.05
2023-12-18T17:56:56.238Z,7.04
2023-12-18T17:59:23.695Z,7.01
2023-12-18T18:01:59.560Z,7.01
2023-12-18T18:04:26.188Z,6.98
2023-12-18T18:06:58.636Z,6.95
2023-12-18T18:09:50.536Z,6.88
2023-12-18T18:12:17.520Z,6.86
2023-12-18T18:14:46.433Z,6.82
2023-12-18T18:17:14.499Z,6.81
2023-12-18T18:19:42.995Z,6.76
2023-12-18T18:22:11.067Z,6.74
2023-12-18T18:24:38.889Z,6.73
2023-12-18T18:34:33.106Z,6.67
2023-12-18T18:37:05.841Z,6.68
2023-12-18T18:39:33.261Z,6.63
2023-12-18T18:42:00.038Z,6.59
2023-12-18T18:44:29.486Z,6.58
2023-12-18T18:46:56.067Z,6.53
2023-12-18T18:49:23.057Z,6.52
2023-12-18T18:51:50.192Z,6.48
2023-12-18T18:54:16.841Z,6.49
2023-12-18T18:56:43.458Z,6.49
2023-12-18T18:59:11.688Z,6.49
2023-12-18T19:01:38.566Z,6.48
2023-12-18T19:04:09.571Z,6.45
2023-12-18T19:06:40.110Z,6.42
2023-12-18T19:09:13.997Z,6.39
2023-12-18T19:11:45.484Z,6.38
2023-12-18T19:14:18.416Z,6.36
2023-12-18T19:16:48.381Z,6.36
2023-12-18T19:19:15.162Z,6.37
2023-12-18T19:21:58.283Z,6.32
2023-12-18T19:24:28.455Z,6.32
2023-12-18T19:27:00.172Z,6.32
2023-12-18T19:29:26.909Z,6.30
2023-12-18T19:31:55.372Z,6.27
2023-12-18T19:34:22.189Z,6.32
2023-12-18T19:36:48.998Z,6.32
2023-12-18T19:39:15.790Z,6.30
2023-12-18T19:42:17.074Z,6.29
2023-12-18T19:44:48.403Z,6.31
2023-12-18T19:47:34.479Z,6.33
2023-12-18T19:50:32.437Z,6.30
2023-12-18T19:52:58.487Z,6.26
2023-12-18T19:55:46.829Z,6.25
2023-12-18T19:58:38.111Z,6.24
2023-12-18T20:01:04.994Z,6.22
2023-12-18T20:03:33.192Z,6.23
2023-12-18T20:06:00.034Z,6.24
2023-12-18T20:08:26.909Z,6.23
2023-12-18T20:10:55.280Z,6.23
2023-12-18T20:13:25.848Z,6.23
2023-12-18T20:16:01.162Z,6.20
2023-12-18T20:18:28.190Z,6.20
2023-12-18T20:20:59.655Z,6.17
2023-12-18T20:23:30.388Z,6.16
2023-12-18T20:25:57.095Z,6.16
2023-12-18T20:28:26.845Z,6.17
2023-12-18T20:31:14.216Z,6.18
2023-12-18T20:33:43.539Z,6.16
2023-12-18T20:36:10.769Z,6.15
2023-12-18T20:39:16.206Z,6.14
2023-12-18T20:41:43.793Z,6.14
2023-12-18T20:44:18.411Z,6.13
2023-12-18T20:46:45.682Z,6.13
2023-12-18T20:49:18.890Z,6.13
2023-12-18T20:51:48.880Z,6.11
2023-12-18T20:54:21.373Z,6.12
2023-12-18T20:57:17.498Z,6.12
2023-12-18T21:03:57.043Z,6.12
2023-12-18T21:06:28.753Z,6.13
2023-12-18T21:09:01.547Z,6.14
2023-12-18T21:11:57.185Z,6.13
2023-12-18T21:14:30.498Z,6.13
2023-12-18T21:17:02.902Z,6.12
2023-12-18T21:19:40.848Z,6.11
2023-12-18T21:22:07.993Z,6.09
2023-12-18T21:24:34.683Z,6.08
2023-12-18T21:27:01.255Z,6.10
2023-12-18T21:29:27.786Z,6.10
2023-12-18T21:31:54.354Z,6.11
2023-12-18T21:34:21.006Z,6.09
2023-12-18T21:36:51.347Z,6.09
2023-12-18T21:39:18.589Z,6.12
2023-12-18T21:41:45.154Z,6.15
2023-12-18T21:44:16.264Z,6.16
2023-12-18T21:46:43.183Z,6.16
2023-12-18T21:49:09.870Z,6.14
2023-12-18T21:51:43.508Z,6.14
2023-12-18T21:54:10.754Z,6.15
2023-12-18T21:56:37.255Z,6.14
2023-12-18T21:59:03.774Z,6.14
2023-12-18T22:01:36.937Z,6.12
2023-12-18T22:04:05.954Z,6.12
2023-12-18T22:06:34.539Z,6.12
2023-12-18T22:09:02.556Z,6.10
2023-12-18T22:11:29.073Z,6.10
2023-12-18T22:13:55.601Z,6.08
2023-12-18T22:16:24.181Z,6.06
2023-12-18T22:18:51.498Z,6.05
2023-12-18T22:21:18.186Z,6.05
2023-12-18T22:23:45.024Z,6.03
2023-12-18T22:26:13.111Z,6.03
2023-12-18T22:28:47.578Z,6.03
2023-12-18T22:31:14.459Z,6.02
2023-12-18T22:33:41.197Z,6.02
2023-12-18T22:36:07.937Z,6.03
2023-12-18T22:38:34.581Z,6.01
2023-12-18T22:41:02.457Z,6.02
2023-12-18T22:43:29.056Z,6.01
2023-12-18T22:45:57.141Z,6.02
2023-12-18T22:48:23.920Z,6.03
2023-12-18T22:50:50.588Z,6.02
2023-12-18T22:53:20.608Z,6.03
2023-12-18T22:55:48.693Z,6.03
2023-12-18T22:58:15.395Z,6.03
2023-12-18T23:00:42.073Z,6.03
2023-12-18T23:03:08.814Z,6.03
2023-12-18T23:05:36.243Z,6.04
2023-12-18T23:08:04.142Z,6.04
2023-12-18T23:10:30.648Z,6.03
2023-12-18T23:12:57.406Z,6.02
2023-12-18T23:15:24.136Z,6.02
2023-12-18T23:17:50.728Z,6.02
2023-12-18T23:20:20.373Z,6.02
2023-12-18T23:22:47.156Z,6.01
2023-12-18T23:25:13.985Z,6.00
2023-12-18T23:27:43.198Z,6.00
2023-12-18T23:30:11.419Z,5.99
2023-12-18T23:32:38.129Z,5.97
2023-12-18T23:35:07.583Z,5.95
2023-12-18T23:37:34.338Z,5.95
2023-12-18T23:40:01.647Z,5.95
2023-12-18T23:42:29.127Z,5.95
2023-12-18T23:44:55.659Z,5.93
2023-12-18T23:47:22.102Z,5.92
2023-12-18T23:49:48.556Z,5.92
2023-12-18T23:52:15.088Z,5.93
2023-12-18T23:54:42.180Z,5.92
2023-12-18T23:57:09.209Z,5.93
2023-12-18T23:59:35.933Z,5.91
